sensor_id;sensor_type;location;lat;lon;timestamp;temperature;humidity
35027;DHT22;60696;51.426;6.934;2024-03-08T05:00:52;1.10;1.00
35027;DHT22;60696;51.426;6.934;2024-03-08T05:03:18;1.10;1.00
35027;DHT22;60696;51.426;6.934;2024-03-08T05:05:43;1.00;1.00
35027;DHT22;60696;51.426;6.934;2024-03-08T05:08:09;1.00;1.00
35027;DHT22;60696;51.426;6.934;2024-03-08T05:10:34;1.00;1.00
35027;DHT22;60696;51.426;6.934;2024-03-08T05:13:00;0.90;47.50
35027;DHT22;60696;51.426;6.934;2024-03-08T05:15:26;0.80;99.90
35027;DHT22;60696;51.426;6.934;2024-03-08T05:17:51;0.80;99.90
35027;DHT22;60696;51.426;6.934;2024-03-08T05:20:17;0.80;99.90
35027;DHT22;60696;51.426;6.934;2024-03-08T05:22:43;0.80;99.90
35027;DHT22;60696;51.426;6.934;2024-03-08T05:25:08;0.70;1.00
35027;DHT22;60696;51.426;6.934;2024-03-08T05:27:35;0.60;1.00
35027;DHT22;60696;51.426;6.934;2024-03-08T05:30:05;0.70;1.00
35027;DHT22;60696;51.426;6.934;2024-03-08T05:32:31;0.70;1.00
35027;DHT22;60696;51.426;6.934;2024-03-08T05:34:56;0.70;99.90
35027;DHT22;60696;51.426;6.934;2024-03-08T05:37:22;0.80;99.90
35027;DHT22;60696;51.426;6.934;2024-03-08T05:39:48;0.80;99.90
35027;DHT22;60696;51.426;6.934;2024-03-08T05:42:13;0.90;99.90
35027;DHT22;60696;51.426;6.934;2024-03-08T05:44:39;0.90;99.90
35027;DHT22;60696;51.426;6.934;2024-03-08T05:47:06;0.90;99.90
35027;DHT22;60696;51.426;6.934;2024-03-08T05:49:32;1.00;99.90
35027;DHT22;60696;51.426;6.934;2024-03-08T05:51:59;0.90;99.90
35027;DHT22;60696;51.426;6.934;2024-03-08T05:54:25;1.00;99.90
35027;DHT22;60696;51.426;6.934;2024-03-08T05:56:52;0.90;99.90
35027;DHT22;60696;51.426;6.934;2024-03-08T05:59:18;0.90;99.90
35027;DHT22;60696;51.426;6.934;2024-03-08T06:01:43;0.90;99.90
35027;DHT22;60696;51.426;6.934;2024-03-08T06:04:11;0.80;99.90
35027;DHT22;60696;51.426;6.934;2024-03-08T06:06:37;0.80;99.90
35027;DHT22;60696;51.426;6.934;2024-03-08T06:09:03;0.80;99.90
35027;DHT22;60696;51.426;6.934;2024-03-08T06:11:34;0.80;99.90
35027;DHT22;60696;51.426;6.934;2024-03-08T06:14:00;0.80;99.90
35027;DHT22;60696;51.426;6.934;2024-03-08T06:16:29;0.90;99.90
35027;DHT22;60696;51.426;6.934;2024-03-08T06:18:57;0.80;99.90
35027;DHT22;60696;51.426;6.934;2024-03-08T06:21:24;0.80;99.90
35027;DHT22;60696;51.426;6.934;2024-03-08T06:23:52;0.90;1.00
35027;DHT22;60696;51.426;6.934;2024-03-08T06:26:20;1.10;99.90
35027;DHT22;60696;51.426;6.934;2024-03-08T06:28:47;1.10;99.90
35027;DHT22;60696;51.426;6.934;2024-03-08T06:31:13;0.90;99.90
35027;DHT22;60696;51.426;6.934;2024-03-08T06:33:40;1.00;99.90
35027;DHT22;60696;51.426;6.934;2024-03-08T06:36:05;1.00;99.90
35027;DHT22;60696;51.426;6.934;2024-03-08T06:38:31;1.00;99.90
35027;DHT22;60696;51.426;6.934;2024-03-08T06:40:57;1.00;99.90
35027;DHT22;60696;51.426;6.934;2024-03-08T06:43:22;1.00;99.90
35027;DHT22;60696;51.426;6.934;2024-03-08T06:45:50;1.00;99.90
35027;DHT22;60696;51.426;6.934;2024-03-08T06:48:19;1.00;99.90
35027;DHT22;60696;51.426;6.934;2024-03-08T06:50:45;1.10;99.90
35027;DHT22;60696;51.426;6.934;2024-03-08T06:53:12;1.10;99.90
35027;DHT22;60696;51.426;6.934;2024-03-08T06:55:39;1.30;1.00
35027;DHT22;60696;51.426;6.934;2024-03-08T06:58:05;1.30;1.00
35027;DHT22;60696;51.426;6.934;2024-03-08T07:00:32;1.30;1.00
35027;DHT22;60696;51.426;6.934;2024-03-08T07:02:58;1.40;1.00
35027;DHT22;60696;51.426;6.934;2024-03-08T07:05:29;1.40;1.00
35027;DHT22;60696;51.426;6.934;2024-03-08T07:07:55;1.50;1.00
35027;DHT22;60696;51.426;6.934;2024-03-08T07:10:24;1.50;1.00
35027;DHT22;60696;51.426;6.934;2024-03-08T07:12:51;1.60;99.90
35027;DHT22;60696;51.426;6.934;2024-03-08T07:15:17;1.70;99.90
35027;DHT22;60696;51.426;6.934;2024-03-08T07:17:47;1.80;99.90
35027;DHT22;60696;51.426;6.934;2024-03-08T07:20:14;1.90;99.90
35027;DHT22;60696;51.426;6.934;2024-03-08T07:22:41;2.00;74.00
35027;DHT22;60696;51.426;6.934;2024-03-08T07:25:07;2.10;1.00
35027;DHT22;60696;51.426;6.934;2024-03-08T07:27:33;2.20;1.00
35027;DHT22;60696;51.426;6.934;2024-03-08T07:30:03;2.30;1.00
35027;DHT22;60696;51.426;6.934;2024-03-08T07:32:29;2.30;1.00
35027;DHT22;60696;51.426;6.934;2024-03-08T07:34:58;2.50;99.90
35027;DHT22;60696;51.426;6.934;2024-03-08T07:37:23;2.70;99.90
35027;DHT22;60696;51.426;6.934;2024-03-08T07:39:49;2.60;99.90
35027;DHT22;60696;51.426;6.934;2024-03-08T07:42:15;2.90;99.90
35027;DHT22;60696;51.426;6.934;2024-03-08T07:44:42;2.90;99.90
35027;DHT22;60696;51.426;6.934;2024-03-08T07:47:08;3.10;99.90
35027;DHT22;60696;51.426;6.934;2024-03-08T07:49:35;3.20;1.00
35027;DHT22;60696;51.426;6.934;2024-03-08T07:52:03;3.30;1.00
35027;DHT22;60696;51.426;6.934;2024-03-08T07:54:30;3.50;1.00
35027;DHT22;60696;51.426;6.934;2024-03-08T07:56:56;3.70;1.00
35027;DHT22;60696;51.426;6.934;2024-03-08T07:59:21;3.90;1.00
35027;DHT22;60696;51.426;6.934;2024-03-08T08:01:47;4.10;99.90
35027;DHT22;60696;51.426;6.934;2024-03-08T08:04:13;4.10;99.90
35027;DHT22;60696;51.426;6.934;2024-03-08T08:06:43;4.20;99.90
35027;DHT22;60696;51.426;6.934;2024-03-08T08:09:09;4.70;99.90
35027;DHT22;60696;51.426;6.934;2024-03-08T08:11:40;4.50;99.90
35027;DHT22;60696;51.426;6.934;2024-03-08T08:14:06;5.00;99.90
35027;DHT22;60696;51.426;6.934;2024-03-08T08:16:36;5.60;99.90
35027;DHT22;60696;51.426;6.934;2024-03-08T08:19:08;6.00;99.90
35027;DHT22;60696;51.426;6.934;2024-03-08T08:21:34;6.10;99.90
35027;DHT22;60696;51.426;6.934;2024-03-08T08:24:03;6.40;99.90
35027;DHT22;60696;51.426;6.934;2024-03-08T08:26:28;6.80;73.40
35027;DHT22;60696;51.426;6.934;2024-03-08T08:28:54;7.20;38.40
35027;DHT22;60696;51.426;6.934;2024-03-08T08:31:20;7.90;12.60
35027;DHT22;60696;51.426;6.934;2024-03-08T08:33:45;8.00;1.00
35027;DHT22;60696;51.426;6.934;2024-03-08T08:36:13;8.30;1.00
35027;DHT22;60696;51.426;6.934;2024-03-08T08:38:39;8.50;1.00
35027;DHT22;60696;51.426;6.934;2024-03-08T08:41:05;8.70;1.00
35027;DHT22;60696;51.426;6.934;2024-03-08T08:43:31;8.90;1.00
35027;DHT22;60696;51.426;6.934;2024-03-08T08:45:58;8.80;1.00
35027;DHT22;60696;51.426;6.934;2024-03-08T08:48:24;9.10;1.00
35027;DHT22;60696;51.426;6.934;2024-03-08T08:50:50;8.80;1.00
35027;DHT22;60696;51.426;6.934;2024-03-08T08:53:18;9.00;1.00
35027;DHT22;60696;51.426;6.934;2024-03-08T08:55:44;9.20;1.00
35027;DHT22;60696;51.426;6.934;2024-03-08T08:58:12;9.10;1.00
35027;DHT22;60696;51.426;6.934;2024-03-08T09:00:39;9.00;1.00
35027;DHT22;60696;51.426;6.934;2024-03-08T09:03:05;9.20;1.00
35027;DHT22;60696;51.426;6.934;2024-03-08T09:05:32;9.10;1.00
35027;DHT22;60696;51.426;6.934;2024-03-08T09:07:59;9.50;1.00
35027;DHT22;60696;51.426;6.934;2024-03-08T09:10:25;9.80;1.00
35027;DHT22;60696;51.426;6.934;2024-03-08T09:12:51;9.60;1.00
35027;DHT22;60696;51.426;6.934;2024-03-08T09:15:17;9.60;1.00
35027;DHT22;60696;51.426;6.934;2024-03-08T09:17:46;9.80;1.00
35027;DHT22;60696;51.426;6.934;2024-03-08T09:20:12;9.50;1.00
35027;DHT22;60696;51.426;6.934;2024-03-08T09:22:44;9.70;1.00
35027;DHT22;60696;51.426;6.934;2024-03-08T09:25:11;9.60;1.00
35027;DHT22;60696;51.426;6.934;2024-03-08T09:27:37;9.20;1.00
35027;DHT22;60696;51.426;6.934;2024-03-08T09:30:03;8.80;1.00
35027;DHT22;60696;51.426;6.934;2024-03-08T09:32:29;8.60;1.00
35027;DHT22;60696;51.426;6.934;2024-03-08T09:34:55;9.50;1.00
35027;DHT22;60696;51.426;6.934;2024-03-08T09:37:21;10.40;1.00
35027;DHT22;60696;51.426;6.934;2024-03-08T09:39:48;10.90;1.00
35027;DHT22;60696;51.426;6.934;2024-03-08T09:42:15;10.70;1.00
35027;DHT22;60696;51.426;6.934;2024-03-08T09:44:45;10.10;1.00
35027;DHT22;60696;51.426;6.934;2024-03-08T09:47:13;9.50;1.00
35027;DHT22;60696;51.426;6.934;2024-03-08T09:49:41;9.60;1.00
35027;DHT22;60696;51.426;6.934;2024-03-08T09:52:07;10.00;1.00
35027;DHT22;60696;51.426;6.934;2024-03-08T09:54:33;10.10;1.00
35027;DHT22;60696;51.426;6.934;2024-03-08T09:56:59;10.00;1.00
35027;DHT22;60696;51.426;6.934;2024-03-08T09:59:25;10.60;1.00
35027;DHT22;60696;51.426;6.934;2024-03-08T10:01:53;10.50;1.00
35027;DHT22;60696;51.426;6.934;2024-03-08T10:04:22;10.80;1.00
35027;DHT22;60696;51.426;6.934;2024-03-08T10:06:47;10.60;1.00
35027;DHT22;60696;51.426;6.934;2024-03-08T10:09:14;10.50;1.00
35027;DHT22;60696;51.426;6.934;2024-03-08T10:11:41;10.80;1.00
35027;DHT22;60696;51.426;6.934;2024-03-08T10:14:09;10.50;1.00
35027;DHT22;60696;51.426;6.934;2024-03-08T10:16:36;10.60;1.00
35027;DHT22;60696;51.426;6.934;2024-03-08T10:19:01;10.00;1.00
35027;DHT22;60696;51.426;6.934;2024-03-08T10:21:28;9.90;1.00
35027;DHT22;60696;51.426;6.934;2024-03-08T10:23:56;10.30;1.00
35027;DHT22;60696;51.426;6.934;2024-03-08T10:26:21;10.20;1.00
35027;DHT22;60696;51.426;6.934;2024-03-08T10:28:49;10.50;1.00
35027;DHT22;60696;51.426;6.934;2024-03-08T10:31:15;10.50;1.00
35027;DHT22;60696;51.426;6.934;2024-03-08T10:33:41;11.10;1.00
35027;DHT22;60696;51.426;6.934;2024-03-08T10:36:08;11.20;1.00
35027;DHT22;60696;51.426;6.934;2024-03-08T10:38:37;12.00;1.00
35027;DHT22;60696;51.426;6.934;2024-03-08T10:41:05;12.30;1.00
35027;DHT22;60696;51.426;6.934;2024-03-08T10:43:36;10.70;1.00
35027;DHT22;60696;51.426;6.934;2024-03-08T10:48:55;12.00;1.00
35027;DHT22;60696;51.426;6.934;2024-03-08T10:51:25;12.00;1.00
35027;DHT22;60696;51.426;6.934;2024-03-08T10:53:52;13.80;1.00
35027;DHT22;60696;51.426;6.934;2024-03-08T10:56:20;13.30;1.00
35027;DHT22;60696;51.426;6.934;2024-03-08T10:58:46;13.50;1.00
35027;DHT22;60696;51.426;6.934;2024-03-08T11:01:13;13.20;1.00
35027;DHT22;60696;51.426;6.934;2024-03-08T11:06:22;14.00;1.00
35027;DHT22;60696;51.426;6.934;2024-03-08T11:08:48;13.20;1.00
35027;DHT22;60696;51.426;6.934;2024-03-08T11:11:31;12.40;1.00
35027;DHT22;60696;51.426;6.934;2024-03-08T11:13:58;11.50;1.00
35027;DHT22;60696;51.426;6.934;2024-03-08T11:19:23;11.80;1.00
35027;DHT22;60696;51.426;6.934;2024-03-08T11:21:57;11.90;1.00
35027;DHT22;60696;51.426;6.934;2024-03-08T11:24:23;12.30;1.00
35027;DHT22;60696;51.426;6.934;2024-03-08T11:26:49;14.10;1.00
35027;DHT22;60696;51.426;6.934;2024-03-08T11:34:32;12.50;1.00
35027;DHT22;60696;51.426;6.934;2024-03-08T11:36:59;11.90;1.00
35027;DHT22;60696;51.426;6.934;2024-03-08T11:39:26;12.10;1.00
35027;DHT22;60696;51.426;6.934;2024-03-08T11:41:52;12.10;1.00
35027;DHT22;60696;51.426;6.934;2024-03-08T11:44:17;12.60;1.00
35027;DHT22;60696;51.426;6.934;2024-03-08T11:46:44;12.20;1.00
35027;DHT22;60696;51.426;6.934;2024-03-08T11:49:14;12.90;1.00
35027;DHT22;60696;51.426;6.934;2024-03-08T11:51:40;12.50;1.00
35027;DHT22;60696;51.426;6.934;2024-03-08T11:54:06;12.30;1.00
35027;DHT22;60696;51.426;6.934;2024-03-08T11:56:35;11.90;1.00
35027;DHT22;60696;51.426;6.934;2024-03-08T11:59:02;12.00;1.00
35027;DHT22;60696;51.426;6.934;2024-03-08T12:01:28;11.60;1.00
35027;DHT22;60696;51.426;6.934;2024-03-08T12:03:55;11.30;1.00
35027;DHT22;60696;51.426;6.934;2024-03-08T12:06:24;10.90;1.00
35027;DHT22;60696;51.426;6.934;2024-03-08T12:08:50;11.00;1.00
35027;DHT22;60696;51.426;6.934;2024-03-08T12:11:23;11.20;1.00
35027;DHT22;60696;51.426;6.934;2024-03-08T12:13:49;11.40;1.00
35027;DHT22;60696;51.426;6.934;2024-03-08T12:16:17;12.30;1.00
35027;DHT22;60696;51.426;6.934;2024-03-08T12:18:51;12.50;1.00
35027;DHT22;60696;51.426;6.934;2024-03-08T12:21:17;11.90;1.00
35027;DHT22;60696;51.426;6.934;2024-03-08T12:23:46;11.50;1.00
35027;DHT22;60696;51.426;6.934;2024-03-08T12:26:18;11.40;1.00
35027;DHT22;60696;51.426;6.934;2024-03-08T12:28:45;11.20;1.00
35027;DHT22;60696;51.426;6.934;2024-03-08T12:31:15;11.00;1.00
35027;DHT22;60696;51.426;6.934;2024-03-08T12:33:52;11.50;1.00
35027;DHT22;60696;51.426;6.934;2024-03-08T12:36:19;11.40;1.00
35027;DHT22;60696;51.426;6.934;2024-03-08T12:38:48;11.70;1.00
35027;DHT22;60696;51.426;6.934;2024-03-08T12:41:21;11.70;1.00
35027;DHT22;60696;51.426;6.934;2024-03-08T12:43:47;11.20;1.00
35027;DHT22;60696;51.426;6.934;2024-03-08T12:46:16;11.30;1.00
35027;DHT22;60696;51.426;6.934;2024-03-08T12:48:43;11.30;1.00
35027;DHT22;60696;51.426;6.934;2024-03-08T12:51:13;10.80;1.00
35027;DHT22;60696;51.426;6.934;2024-03-08T12:53:38;11.10;1.00
35027;DHT22;60696;51.426;6.934;2024-03-08T12:56:06;11.30;1.00
35027;DHT22;60696;51.426;6.934;2024-03-08T12:58:36;11.40;1.00
35027;DHT22;60696;51.426;6.934;2024-03-08T13:01:02;11.30;1.00
35027;DHT22;60696;51.426;6.934;2024-03-08T13:03:30;11.60;1.00
35027;DHT22;60696;51.426;6.934;2024-03-08T13:05:57;11.70;1.00
35027;DHT22;60696;51.426;6.934;2024-03-08T13:08:22;11.70;1.00
35027;DHT22;60696;51.426;6.934;2024-03-08T13:10:50;11.70;1.00
35027;DHT22;60696;51.426;6.934;2024-03-08T13:13:16;11.80;1.00
35027;DHT22;60696;51.426;6.934;2024-03-08T13:15:42;11.40;1.00
35027;DHT22;60696;51.426;6.934;2024-03-08T13:18:08;11.50;1.00
35027;DHT22;60696;51.426;6.934;2024-03-08T13:20:35;11.10;1.00
35027;DHT22;60696;51.426;6.934;2024-03-08T13:23:04;11.20;1.00
35027;DHT22;60696;51.426;6.934;2024-03-08T13:25:31;11.20;1.00
35027;DHT22;60696;51.426;6.934;2024-03-08T13:27:57;11.40;1.00
35027;DHT22;60696;51.426;6.934;2024-03-08T13:30:25;11.30;1.00
35027;DHT22;60696;51.426;6.934;2024-03-08T13:32:55;11.40;1.00
35027;DHT22;60696;51.426;6.934;2024-03-08T13:35:20;11.90;1.00
35027;DHT22;60696;51.426;6.934;2024-03-08T13:37:53;11.90;1.00
35027;DHT22;60696;51.426;6.934;2024-03-08T13:40:19;12.00;1.00
35027;DHT22;60696;51.426;6.934;2024-03-08T13:42:46;11.80;1.00
35027;DHT22;60696;51.426;6.934;2024-03-08T13:45:12;11.30;1.00
35027;DHT22;60696;51.426;6.934;2024-03-08T13:47:40;11.40;1.00
35027;DHT22;60696;51.426;6.934;2024-03-08T13:50:07;11.60;1.00
35027;DHT22;60696;51.426;6.934;2024-03-08T13:52:33;11.30;1.00
35027;DHT22;60696;51.426;6.934;2024-03-08T13:55:01;11.50;1.00
35027;DHT22;60696;51.426;6.934;2024-03-08T13:57:26;11.50;1.00
35027;DHT22;60696;51.426;6.934;2024-03-08T13:59:53;11.60;1.00
35027;DHT22;60696;51.426;6.934;2024-03-08T14:02:19;11.80;1.00
35027;DHT22;60696;51.426;6.934;2024-03-08T14:04:44;11.80;1.00
35027;DHT22;60696;51.426;6.934;2024-03-08T14:07:10;11.80;1.00
35027;DHT22;60696;51.426;6.934;2024-03-08T14:09:37;11.80;1.00
35027;DHT22;60696;51.426;6.934;2024-03-08T14:12:09;11.60;1.00
35027;DHT22;60696;51.426;6.934;2024-03-08T14:14:35;11.50;1.00
35027;DHT22;60696;51.426;6.934;2024-03-08T14:17:01;11.40;1.00
35027;DHT22;60696;51.426;6.934;2024-03-08T14:19:28;11.30;1.00
35027;DHT22;60696;51.426;6.934;2024-03-08T14:21:56;11.20;1.00
35027;DHT22;60696;51.426;6.934;2024-03-08T14:24:22;11.10;1.00
35027;DHT22;60696;51.426;6.934;2024-03-08T14:26:49;11.30;1.00
35027;DHT22;60696;51.426;6.934;2024-03-08T14:29:15;11.00;1.00
35027;DHT22;60696;51.426;6.934;2024-03-08T14:31:41;11.10;1.00
35027;DHT22;60696;51.426;6.934;2024-03-08T14:34:08;11.20;1.00
35027;DHT22;60696;51.426;6.934;2024-03-08T14:36:34;11.30;1.00
35027;DHT22;60696;51.426;6.934;2024-03-08T14:39:00;11.40;1.00
35027;DHT22;60696;51.426;6.934;2024-03-08T14:41:26;11.30;1.00
35027;DHT22;60696;51.426;6.934;2024-03-08T14:43:52;11.20;1.00
35027;DHT22;60696;51.426;6.934;2024-03-08T14:46:19;11.20;1.00
35027;DHT22;60696;51.426;6.934;2024-03-08T14:48:49;11.30;1.00
35027;DHT22;60696;51.426;6.934;2024-03-08T14:51:19;11.40;1.00
35027;DHT22;60696;51.426;6.934;2024-03-08T14:53:48;11.20;1.00
35027;DHT22;60696;51.426;6.934;2024-03-08T14:56:15;11.30;1.00
35027;DHT22;60696;51.426;6.934;2024-03-08T14:58:47;11.30;1.00
35027;DHT22;60696;51.426;6.934;2024-03-08T15:01:17;11.30;1.00
35027;DHT22;60696;51.426;6.934;2024-03-08T15:03:47;11.20;1.00
35027;DHT22;60696;51.426;6.934;2024-03-08T15:06:16;11.10;1.00
35027;DHT22;60696;51.426;6.934;2024-03-08T15:08:45;10.90;1.00
35027;DHT22;60696;51.426;6.934;2024-03-08T15:11:11;10.90;1.00
35027;DHT22;60696;51.426;6.934;2024-03-08T15:13:37;10.90;1.00
35027;DHT22;60696;51.426;6.934;2024-03-08T15:16:07;10.90;1.00
35027;DHT22;60696;51.426;6.934;2024-03-08T15:18:34;10.80;1.00
35027;DHT22;60696;51.426;6.934;2024-03-08T15:21:00;10.70;1.00
35027;DHT22;60696;51.426;6.934;2024-03-08T15:23:26;10.70;1.00
35027;DHT22;60696;51.426;6.934;2024-03-08T15:25:52;10.70;1.00
35027;DHT22;60696;51.426;6.934;2024-03-08T15:28:17;10.70;1.00
35027;DHT22;60696;51.426;6.934;2024-03-08T15:30:48;10.70;1.00
35027;DHT22;60696;51.426;6.934;2024-03-08T15:33:19;10.60;1.00
35027;DHT22;60696;51.426;6.934;2024-03-08T15:35:52;10.70;1.00
35027;DHT22;60696;51.426;6.934;2024-03-08T15:38:25;10.70;1.00
35027;DHT22;60696;51.426;6.934;2024-03-08T15:40:53;10.60;1.00
35027;DHT22;60696;51.426;6.934;2024-03-08T15:43:20;10.60;1.00
35027;DHT22;60696;51.426;6.934;2024-03-08T15:45:46;10.60;1.00
35027;DHT22;60696;51.426;6.934;2024-03-08T15:48:12;10.50;1.00
35027;DHT22;60696;51.426;6.934;2024-03-08T15:50:38;10.50;1.00
35027;DHT22;60696;51.426;6.934;2024-03-08T15:53:04;10.50;1.00
35027;DHT22;60696;51.426;6.934;2024-03-08T15:55:30;10.50;1.00
35027;DHT22;60696;51.426;6.934;2024-03-08T15:57:57;10.50;1.00
35027;DHT22;60696;51.426;6.934;2024-03-08T16:00:25;10.40;1.00
35027;DHT22;60696;51.426;6.934;2024-03-08T16:03:11;10.40;1.00
35027;DHT22;60696;51.426;6.934;2024-03-08T16:05:41;10.40;1.00
35027;DHT22;60696;51.426;6.934;2024-03-08T16:08:09;10.30;1.00
35027;DHT22;60696;51.426;6.934;2024-03-08T16:10:41;10.30;1.00
35027;DHT22;60696;51.426;6.934;2024-03-08T16:13:07;10.30;1.00
35027;DHT22;60696;51.426;6.934;2024-03-08T16:15:33;10.30;1.00
35027;DHT22;60696;51.426;6.934;2024-03-08T16:18:00;10.30;1.00
35027;DHT22;60696;51.426;6.934;2024-03-08T16:20:30;10.20;1.00
35027;DHT22;60696;51.426;6.934;2024-03-08T16:22:57;10.20;1.00
35027;DHT22;60696;51.426;6.934;2024-03-08T16:25:23;10.10;1.00
35027;DHT22;60696;51.426;6.934;2024-03-08T16:27:48;10.10;1.00
35027;DHT22;60696;51.426;6.934;2024-03-08T16:30:15;10.00;1.00
35027;DHT22;60696;51.426;6.934;2024-03-08T16:32:44;10.00;1.00
35027;DHT22;60696;51.426;6.934;2024-03-08T16:35:20;10.00;1.00
35027;DHT22;60696;51.426;6.934;2024-03-08T16:37:45;10.00;1.00
35027;DHT22;60696;51.426;6.934;2024-03-08T16:40:13;10.00;1.00
35027;DHT22;60696;51.426;6.934;2024-03-08T16:42:44;9.90;1.00
35027;DHT22;60696;51.426;6.934;2024-03-08T16:45:11;9.90;1.00
35027;DHT22;60696;51.426;6.934;2024-03-08T16:47:37;9.90;1.00
35027;DHT22;60696;51.426;6.934;2024-03-08T16:50:04;9.80;1.00
35027;DHT22;60696;51.426;6.934;2024-03-08T16:52:31;9.80;1.00
35027;DHT22;60696;51.426;6.934;2024-03-08T16:55:04;9.80;1.00
35027;DHT22;60696;51.426;6.934;2024-03-08T16:57:41;9.80;1.00
35027;DHT22;60696;51.426;6.934;2024-03-08T17:00:21;9.70;1.00
35027;DHT22;60696;51.426;6.934;2024-03-08T17:03:04;9.70;1.00
35027;DHT22;60696;51.426;6.934;2024-03-08T17:05:32;9.50;1.00
35027;DHT22;60696;51.426;6.934;2024-03-08T17:08:00;9.60;1.00
35027;DHT22;60696;51.426;6.934;2024-03-08T17:10:33;9.50;1.00
35027;DHT22;60696;51.426;6.934;2024-03-08T17:12:59;9.40;1.00
35027;DHT22;60696;51.426;6.934;2024-03-08T17:15:28;9.40;1.00
35027;DHT22;60696;51.426;6.934;2024-03-08T17:17:58;9.30;1.00
35027;DHT22;60696;51.426;6.934;2024-03-08T17:20:27;9.20;1.00
35027;DHT22;60696;51.426;6.934;2024-03-08T17:22:54;9.10;1.00
35027;DHT22;60696;51.426;6.934;2024-03-08T17:25:20;9.10;1.00
35027;DHT22;60696;51.426;6.934;2024-03-08T17:27:48;9.10;1.00
35027;DHT22;60696;51.426;6.934;2024-03-08T17:30:18;9.10;1.00
35027;DHT22;60696;51.426;6.934;2024-03-08T17:33:00;9.00;1.00
35027;DHT22;60696;51.426;6.934;2024-03-08T17:35:30;8.90;1.00
35027;DHT22;60696;51.426;6.934;2024-03-08T17:37:59;8.80;1.00
35027;DHT22;60696;51.426;6.934;2024-03-08T17:40:27;8.80;1.00
35027;DHT22;60696;51.426;6.934;2024-03-08T17:42:56;8.70;1.00
35027;DHT22;60696;51.426;6.934;2024-03-08T17:45:25;8.60;1.00
35027;DHT22;60696;51.426;6.934;2024-03-08T17:47:53;8.70;1.00
35027;DHT22;60696;51.426;6.934;2024-03-08T17:50:20;8.60;1.00
35027;DHT22;60696;51.426;6.934;2024-03-08T17:52:49;8.60;1.00
35027;DHT22;60696;51.426;6.934;2024-03-08T17:55:24;8.50;1.00
35027;DHT22;60696;51.426;6.934;2024-03-08T17:57:51;8.50;1.00
35027;DHT22;60696;51.426;6.934;2024-03-08T18:00:22;8.50;1.00
35027;DHT22;60696;51.426;6.934;2024-03-08T18:02:55;8.40;1.00
35027;DHT22;60696;51.426;6.934;2024-03-08T18:05:25;8.40;1.00
35027;DHT22;60696;51.426;6.934;2024-03-08T18:08:03;8.30;1.00
35027;DHT22;60696;51.426;6.934;2024-03-08T18:10:30;8.30;1.00
35027;DHT22;60696;51.426;6.934;2024-03-08T18:13:01;8.30;1.00
35027;DHT22;60696;51.426;6.934;2024-03-08T18:15:47;8.30;1.00
35027;DHT22;60696;51.426;6.934;2024-03-08T18:18:13;8.20;1.00
35027;DHT22;60696;51.426;6.934;2024-03-08T18:20:39;8.20;1.00
35027;DHT22;60696;51.426;6.934;2024-03-08T18:23:16;8.10;1.00
35027;DHT22;60696;51.426;6.934;2024-03-08T18:25:42;8.10;1.00
35027;DHT22;60696;51.426;6.934;2024-03-08T18:28:09;8.10;1.00
35027;DHT22;60696;51.426;6.934;2024-03-08T18:30:36;8.10;1.00
35027;DHT22;60696;51.426;6.934;2024-03-08T18:33:02;8.10;1.00
35027;DHT22;60696;51.426;6.934;2024-03-08T18:35:29;8.10;1.00
35027;DHT22;60696;51.426;6.934;2024-03-08T18:37:55;8.10;1.00
35027;DHT22;60696;51.426;6.934;2024-03-08T18:40:22;8.10;1.00
35027;DHT22;60696;51.426;6.934;2024-03-08T18:42:51;8.10;1.00
35027;DHT22;60696;51.426;6.934;2024-03-08T18:45:18;8.00;1.00
35027;DHT22;60696;51.426;6.934;2024-03-08T18:47:50;8.00;1.00
35027;DHT22;60696;51.426;6.934;2024-03-08T18:50:17;8.00;1.00
35027;DHT22;60696;51.426;6.934;2024-03-08T18:52:44;8.00;1.00
35027;DHT22;60696;51.426;6.934;2024-03-08T18:55:11;8.00;1.00
35027;DHT22;60696;51.426;6.934;2024-03-08T18:57:42;8.00;1.00
35027;DHT22;60696;51.426;6.934;2024-03-08T19:00:09;7.90;1.00
35027;DHT22;60696;51.426;6.934;2024-03-08T19:02:51;7.80;1.00
35027;DHT22;60696;51.426;6.934;2024-03-08T19:05:19;7.70;1.00
35027;DHT22;60696;51.426;6.934;2024-03-08T19:07:46;7.60;1.00
35027;DHT22;60696;51.426;6.934;2024-03-08T19:10:13;7.50;1.00
35027;DHT22;60696;51.426;6.934;2024-03-08T19:12:48;7.40;1.00
35027;DHT22;60696;51.426;6.934;2024-03-08T19:15:15;7.30;1.00
35027;DHT22;60696;51.426;6.934;2024-03-08T19:17:46;7.30;1.00
35027;DHT22;60696;51.426;6.934;2024-03-08T19:20:16;7.20;1.00
35027;DHT22;60696;51.426;6.934;2024-03-08T19:22:46;7.10;1.00
35027;DHT22;60696;51.426;6.934;2024-03-08T19:25:12;7.10;1.00
35027;DHT22;60696;51.426;6.934;2024-03-08T19:27:39;7.10;1.00
35027;DHT22;60696;51.426;6.934;2024-03-08T19:30:06;7.20;1.00
35027;DHT22;60696;51.426;6.934;2024-03-08T19:32:33;7.20;1.00
35027;DHT22;60696;51.426;6.934;2024-03-08T19:35:04;7.10;1.00
35027;DHT22;60696;51.426;6.934;2024-03-08T19:37:37;7.10;1.00
35027;DHT22;60696;51.426;6.934;2024-03-08T19:40:07;7.00;1.00
35027;DHT22;60696;51.426;6.934;2024-03-08T19:42:39;6.90;1.00
35027;DHT22;60696;51.426;6.934;2024-03-08T19:45:05;6.90;1.00
35027;DHT22;60696;51.426;6.934;2024-03-08T19:47:35;6.90;1.00
35027;DHT22;60696;51.426;6.934;2024-03-08T19:50:00;6.90;1.00
35027;DHT22;60696;51.426;6.934;2024-03-08T19:52:26;6.70;1.00
35027;DHT22;60696;51.426;6.934;2024-03-08T19:54:52;6.60;1.00
35027;DHT22;60696;51.426;6.934;2024-03-08T19:57:19;6.60;1.00
35027;DHT22;60696;51.426;6.934;2024-03-08T19:59:45;6.50;1.00
35027;DHT22;60696;51.426;6.934;2024-03-08T20:02:12;6.50;1.00
35027;DHT22;60696;51.426;6.934;2024-03-08T20:04:38;6.50;1.00
35027;DHT22;60696;51.426;6.934;2024-03-08T20:07:04;6.40;1.00
35027;DHT22;60696;51.426;6.934;2024-03-08T20:09:30;6.40;1.00
35027;DHT22;60696;51.426;6.934;2024-03-08T20:11:58;6.40;1.00
35027;DHT22;60696;51.426;6.934;2024-03-08T20:14:24;6.30;1.00
35027;DHT22;60696;51.426;6.934;2024-03-08T20:16:50;6.30;1.00
35027;DHT22;60696;51.426;6.934;2024-03-08T20:19:17;6.30;1.00
35027;DHT22;60696;51.426;6.934;2024-03-08T20:21:43;6.30;1.00
35027;DHT22;60696;51.426;6.934;2024-03-08T20:24:09;6.30;1.00
35027;DHT22;60696;51.426;6.934;2024-03-08T20:26:35;6.30;1.00
35027;DHT22;60696;51.426;6.934;2024-03-08T20:29:02;6.30;1.00
35027;DHT22;60696;51.426;6.934;2024-03-08T20:31:33;6.30;1.00
35027;DHT22;60696;51.426;6.934;2024-03-08T20:33:59;6.20;1.00
35027;DHT22;60696;51.426;6.934;2024-03-08T20:36:24;6.20;1.00
35027;DHT22;60696;51.426;6.934;2024-03-08T20:38:51;6.20;6.60
35027;DHT22;60696;51.426;6.934;2024-03-08T20:41:17;6.20;19.00
35027;DHT22;60696;51.426;6.934;2024-03-08T20:43:43;6.20;30.00
35027;DHT22;60696;51.426;6.934;2024-03-08T20:46:09;6.10;39.90
35027;DHT22;60696;51.426;6.934;2024-03-08T20:48:36;6.10;63.80
35027;DHT22;60696;51.426;6.934;2024-03-08T20:51:02;5.90;91.40
35027;DHT22;60696;51.426;6.934;2024-03-08T20:53:28;5.90;99.90
35027;DHT22;60696;51.426;6.934;2024-03-08T20:55:54;5.90;99.90
35027;DHT22;60696;51.426;6.934;2024-03-08T20:58:20;5.90;99.90
35027;DHT22;60696;51.426;6.934;2024-03-08T21:00:49;6.00;99.90
35027;DHT22;60696;51.426;6.934;2024-03-08T21:03:24;5.90;99.90
35027;DHT22;60696;51.426;6.934;2024-03-08T21:05:53;5.90;99.90
35027;DHT22;60696;51.426;6.934;2024-03-08T21:08:24;5.80;99.90